sensor_id;sensor_type;location;lat;lon;timestamp;P1;durP1;ratioP1;P2;durP2;ratioP2
32399;SDS011;45045;45.440;9.178;2023-09-18T00:02:11;8.55;;;6.70;;
32399;SDS011;45045;45.440;9.178;2023-09-18T00:04:37;9.85;;;7.25;;
32399;SDS011;45045;45.440;9.178;2023-09-18T00:07:02;14.02;;;7.82;;
32399;SDS011;45045;45.440;9.178;2023-09-18T00:09:28;11.20;;;7.75;;
32399;SDS011;45045;45.440;9.178;2023-09-18T00:11:54;11.07;;;8.80;;
32399;SDS011;45045;45.440;9.178;2023-09-18T00:14:19;12.38;;;9.45;;
32399;SDS011;45045;45.440;9.178;2023-09-18T00:16:45;10.00;;;7.97;;
32399;SDS011;45045;45.440;9.178;2023-09-18T00:19:10;10.25;;;8.18;;
32399;SDS011;45045;45.440;9.178;2023-09-18T00:21:36;11.43;;;8.27;;
32399;SDS011;45045;45.440;9.178;2023-09-18T00:24:02;9.45;;;7.70;;
32399;SDS011;45045;45.440;9.178;2023-09-18T00:26:36;11.68;;;8.60;;
32399;SDS011;45045;45.440;9.178;2023-09-18T00:29:02;10.50;;;7.75;;
32399;SDS011;45045;45.440;9.178;2023-09-18T00:31:28;12.50;;;8.35;;
32399;SDS011;45045;45.440;9.178;2023-09-18T00:33:53;11.05;;;8.23;;
32399;SDS011;45045;45.440;9.178;2023-09-18T00:36:19;10.80;;;8.52;;
32399;SDS011;45045;45.440;9.178;2023-09-18T00:38:45;10.02;;;8.10;;
32399;SDS011;45045;45.440;9.178;2023-09-18T00:41:11;12.57;;;8.68;;
32399;SDS011;45045;45.440;9.178;2023-09-18T00:43:37;12.85;;;8.93;;
32399;SDS011;45045;45.440;9.178;2023-09-18T00:46:03;10.88;;;8.38;;
32399;SDS011;45045;45.440;9.178;2023-09-18T00:48:28;11.95;;;8.90;;
32399;SDS011;45045;45.440;9.178;2023-09-18T00:50:54;11.00;;;8.75;;
32399;SDS011;45045;45.440;9.178;2023-09-18T00:53:22;13.77;;;9.35;;
32399;SDS011;45045;45.440;9.178;2023-09-18T00:55:50;13.68;;;10.13;;
32399;SDS011;45045;45.440;9.178;2023-09-18T00:58:19;15.50;;;9.57;;
32399;SDS011;45045;45.440;9.178;2023-09-18T01:00:45;15.02;;;10.07;;
32399;SDS011;45045;45.440;9.178;2023-09-18T01:03:11;17.42;;;9.88;;
32399;SDS011;45045;45.440;9.178;2023-09-18T01:05:37;13.30;;;9.45;;
32399;SDS011;45045;45.440;9.178;2023-09-18T01:08:02;13.93;;;9.77;;
32399;SDS011;45045;45.440;9.178;2023-09-18T01:10:32;12.77;;;9.93;;
32399;SDS011;45045;45.440;9.178;2023-09-18T01:13:05;10.85;;;9.05;;
32399;SDS011;45045;45.440;9.178;2023-09-18T01:15:44;10.68;;;9.38;;
32399;SDS011;45045;45.440;9.178;2023-09-18T01:18:16;14.10;;;10.05;;
32399;SDS011;45045;45.440;9.178;2023-09-18T01:20:43;13.20;;;10.63;;
32399;SDS011;45045;45.440;9.178;2023-09-18T01:23:10;14.55;;;10.52;;
32399;SDS011;45045;45.440;9.178;2023-09-18T01:25:36;12.35;;;9.52;;
32399;SDS011;45045;45.440;9.178;2023-09-18T01:28:02;13.00;;;9.98;;
32399;SDS011;45045;45.440;9.178;2023-09-18T01:30:28;16.13;;;10.02;;
32399;SDS011;45045;45.440;9.178;2023-09-18T01:32:54;12.32;;;9.50;;
32399;SDS011;45045;45.440;9.178;2023-09-18T01:35:23;14.50;;;9.52;;
32399;SDS011;45045;45.440;9.178;2023-09-18T01:40:21;13.35;;;9.77;;
32399;SDS011;45045;45.440;9.178;2023-09-18T01:42:48;13.35;;;10.02;;
32399;SDS011;45045;45.440;9.178;2023-09-18T01:45:14;14.05;;;10.07;;
32399;SDS011;45045;45.440;9.178;2023-09-18T01:47:39;15.93;;;10.77;;
32399;SDS011;45045;45.440;9.178;2023-09-18T01:50:05;14.20;;;10.27;;
32399;SDS011;45045;45.440;9.178;2023-09-18T01:52:31;17.00;;;11.07;;
32399;SDS011;45045;45.440;9.178;2023-09-18T01:54:57;13.27;;;10.32;;
32399;SDS011;45045;45.440;9.178;2023-09-18T01:57:24;17.52;;;9.23;;
32399;SDS011;45045;45.440;9.178;2023-09-18T01:59:50;14.57;;;9.70;;
32399;SDS011;45045;45.440;9.178;2023-09-18T02:02:16;11.90;;;9.25;;
32399;SDS011;45045;45.440;9.178;2023-09-18T02:04:41;14.68;;;10.27;;
32399;SDS011;45045;45.440;9.178;2023-09-18T02:07:07;14.18;;;10.55;;
32399;SDS011;45045;45.440;9.178;2023-09-18T02:09:34;12.93;;;10.25;;
32399;SDS011;45045;45.440;9.178;2023-09-18T02:11:59;16.75;;;11.13;;
32399;SDS011;45045;45.440;9.178;2023-09-18T02:14:25;17.02;;;11.30;;
32399;SDS011;45045;45.440;9.178;2023-09-18T02:16:51;13.02;;;10.45;;
32399;SDS011;45045;45.440;9.178;2023-09-18T02:19:17;16.63;;;10.73;;
32399;SDS011;45045;45.440;9.178;2023-09-18T02:21:45;16.65;;;10.80;;
32399;SDS011;45045;45.440;9.178;2023-09-18T02:24:10;16.75;;;10.15;;
32399;SDS011;45045;45.440;9.178;2023-09-18T02:26:36;14.07;;;10.57;;
32399;SDS011;45045;45.440;9.178;2023-09-18T02:29:04;13.50;;;11.55;;
32399;SDS011;45045;45.440;9.178;2023-09-18T02:31:31;15.70;;;11.50;;
32399;SDS011;45045;45.440;9.178;2023-09-18T02:33:57;19.13;;;12.75;;
32399;SDS011;45045;45.440;9.178;2023-09-18T02:36:23;15.05;;;11.43;;
32399;SDS011;45045;45.440;9.178;2023-09-18T02:38:48;17.00;;;11.77;;
32399;SDS011;45045;45.440;9.178;2023-09-18T02:41:14;19.05;;;12.60;;
32399;SDS011;45045;45.440;9.178;2023-09-18T02:43:40;16.02;;;12.90;;
32399;SDS011;45045;45.440;9.178;2023-09-18T02:46:06;18.30;;;12.65;;
32399;SDS011;45045;45.440;9.178;2023-09-18T02:48:32;17.95;;;13.77;;
32399;SDS011;45045;45.440;9.178;2023-09-18T02:50:59;16.52;;;13.43;;
32399;SDS011;45045;45.440;9.178;2023-09-18T02:53:25;21.95;;;13.85;;
32399;SDS011;45045;45.440;9.178;2023-09-18T02:55:51;17.83;;;13.65;;
32399;SDS011;45045;45.440;9.178;2023-09-18T02:58:18;18.23;;;13.32;;
32399;SDS011;45045;45.440;9.178;2023-09-18T03:00:46;18.85;;;13.13;;
32399;SDS011;45045;45.440;9.178;2023-09-18T03:03:13;18.80;;;13.85;;
32399;SDS011;45045;45.440;9.178;2023-09-18T03:05:40;21.13;;;14.82;;
32399;SDS011;45045;45.440;9.178;2023-09-18T03:08:07;20.25;;;13.05;;
32399;SDS011;45045;45.440;9.178;2023-09-18T03:10:34;17.30;;;13.30;;
32399;SDS011;45045;45.440;9.178;2023-09-18T03:13:00;19.45;;;12.98;;
32399;SDS011;45045;45.440;9.178;2023-09-18T03:15:30;16.52;;;13.05;;
32399;SDS011;45045;45.440;9.178;2023-09-18T03:17:56;13.57;;;12.05;;
32399;SDS011;45045;45.440;9.178;2023-09-18T03:20:23;16.55;;;13.65;;
32399;SDS011;45045;45.440;9.178;2023-09-18T03:22:53;15.98;;;13.25;;
32399;SDS011;45045;45.440;9.178;2023-09-18T03:25:20;18.20;;;13.07;;
32399;SDS011;45045;45.440;9.178;2023-09-18T03:27:47;19.45;;;13.70;;
32399;SDS011;45045;45.440;9.178;2023-09-18T03:30:13;20.50;;;14.70;;
32399;SDS011;45045;45.440;9.178;2023-09-18T03:32:41;20.90;;;14.50;;
32399;SDS011;45045;45.440;9.178;2023-09-18T03:35:07;17.02;;;14.32;;
32399;SDS011;45045;45.440;9.178;2023-09-18T03:37:40;17.83;;;15.07;;
32399;SDS011;45045;45.440;9.178;2023-09-18T03:40:06;18.55;;;15.68;;
32399;SDS011;45045;45.440;9.178;2023-09-18T03:42:33;24.70;;;15.85;;
32399;SDS011;45045;45.440;9.178;2023-09-18T03:44:59;20.85;;;15.88;;
32399;SDS011;45045;45.440;9.178;2023-09-18T03:47:25;22.30;;;14.60;;
32399;SDS011;45045;45.440;9.178;2023-09-18T03:49:50;20.10;;;13.98;;
32399;SDS011;45045;45.440;9.178;2023-09-18T03:52:16;17.98;;;14.40;;
32399;SDS011;45045;45.440;9.178;2023-09-18T03:54:42;17.95;;;15.07;;
32399;SDS011;45045;45.440;9.178;2023-09-18T03:57:07;20.95;;;14.88;;
32399;SDS011;45045;45.440;9.178;2023-09-18T03:59:33;24.48;;;16.92;;
32399;SDS011;45045;45.440;9.178;2023-09-18T04:01:58;17.67;;;14.77;;
32399;SDS011;45045;45.440;9.178;2023-09-18T04:04:24;21.15;;;15.10;;
32399;SDS011;45045;45.440;9.178;2023-09-18T04:06:50;20.08;;;14.77;;
32399;SDS011;45045;45.440;9.178;2023-09-18T04:09:15;19.45;;;14.63;;
32399;SDS011;45045;45.440;9.178;2023-09-18T04:11:43;17.45;;;12.45;;
32399;SDS011;45045;45.440;9.178;2023-09-18T04:14:08;15.07;;;13.00;;
32399;SDS011;45045;45.440;9.178;2023-09-18T04:16:34;17.63;;;13.00;;
32399;SDS011;45045;45.440;9.178;2023-09-18T04:19:03;17.55;;;13.80;;
32399;SDS011;45045;45.440;9.178;2023-09-18T04:21:29;18.10;;;13.73;;
32399;SDS011;45045;45.440;9.178;2023-09-18T04:23:55;16.08;;;13.75;;
32399;SDS011;45045;45.440;9.178;2023-09-18T04:26:25;15.57;;;13.32;;
32399;SDS011;45045;45.440;9.178;2023-09-18T04:29:01;16.17;;;14.18;;
32399;SDS011;45045;45.440;9.178;2023-09-18T04:31:28;16.40;;;13.35;;
32399;SDS011;45045;45.440;9.178;2023-09-18T04:33:54;16.90;;;14.43;;
32399;SDS011;45045;45.440;9.178;2023-09-18T04:36:20;22.15;;;17.42;;
32399;SDS011;45045;45.440;9.178;2023-09-18T04:38:45;22.40;;;17.35;;
32399;SDS011;45045;45.440;9.178;2023-09-18T04:41:11;21.50;;;16.55;;
32399;SDS011;45045;45.440;9.178;2023-09-18T04:43:37;18.65;;;16.23;;
32399;SDS011;45045;45.440;9.178;2023-09-18T04:46:06;22.95;;;17.73;;
32399;SDS011;45045;45.440;9.178;2023-09-18T04:48:32;23.88;;;17.98;;
32399;SDS011;45045;45.440;9.178;2023-09-18T04:50:59;19.77;;;17.13;;
32399;SDS011;45045;45.440;9.178;2023-09-18T04:53:25;22.63;;;17.27;;
32399;SDS011;45045;45.440;9.178;2023-09-18T04:55:52;19.90;;;17.33;;
32399;SDS011;45045;45.440;9.178;2023-09-18T04:58:18;19.52;;;17.27;;
32399;SDS011;45045;45.440;9.178;2023-09-18T05:00:43;20.42;;;16.42;;
32399;SDS011;45045;45.440;9.178;2023-09-18T05:03:10;21.83;;;17.58;;
32399;SDS011;45045;45.440;9.178;2023-09-18T05:05:36;21.85;;;16.27;;
32399;SDS011;45045;45.440;9.178;2023-09-18T05:08:02;21.45;;;16.27;;
32399;SDS011;45045;45.440;9.178;2023-09-18T05:10:32;23.10;;;17.30;;
32399;SDS011;45045;45.440;9.178;2023-09-18T05:12:58;21.83;;;17.95;;
32399;SDS011;45045;45.440;9.178;2023-09-18T05:15:24;22.85;;;17.55;;
32399;SDS011;45045;45.440;9.178;2023-09-18T05:17:56;23.02;;;17.75;;
32399;SDS011;45045;45.440;9.178;2023-09-18T05:20:27;22.00;;;17.88;;
32399;SDS011;45045;45.440;9.178;2023-09-18T05:22:54;23.23;;;19.42;;
32399;SDS011;45045;45.440;9.178;2023-09-18T05:25:21;27.85;;;18.98;;
32399;SDS011;45045;45.440;9.178;2023-09-18T05:27:48;21.35;;;17.13;;
32399;SDS011;45045;45.440;9.178;2023-09-18T05:30:25;23.33;;;18.80;;
32399;SDS011;45045;45.440;9.178;2023-09-18T05:32:57;22.75;;;18.00;;
32399;SDS011;45045;45.440;9.178;2023-09-18T05:35:29;21.88;;;18.50;;
32399;SDS011;45045;45.440;9.178;2023-09-18T05:38:16;22.73;;;18.08;;
32399;SDS011;45045;45.440;9.178;2023-09-18T05:40:43;23.20;;;18.25;;
32399;SDS011;45045;45.440;9.178;2023-09-18T05:43:09;19.65;;;16.85;;
32399;SDS011;45045;45.440;9.178;2023-09-18T05:45:35;21.25;;;18.15;;
32399;SDS011;45045;45.440;9.178;2023-09-18T05:48:01;22.50;;;16.17;;
32399;SDS011;45045;45.440;9.178;2023-09-18T05:50:30;20.30;;;15.48;;
32399;SDS011;45045;45.440;9.178;2023-09-18T05:52:57;19.20;;;15.40;;
32399;SDS011;45045;45.440;9.178;2023-09-18T05:55:25;18.63;;;15.40;;
32399;SDS011;45045;45.440;9.178;2023-09-18T05:57:52;19.10;;;15.98;;
32399;SDS011;45045;45.440;9.178;2023-09-18T06:00:18;25.50;;;16.13;;
32399;SDS011;45045;45.440;9.178;2023-09-18T06:02:44;20.35;;;15.60;;
32399;SDS011;45045;45.440;9.178;2023-09-18T06:05:10;20.13;;;16.98;;
32399;SDS011;45045;45.440;9.178;2023-09-18T06:07:36;21.55;;;16.55;;
32399;SDS011;45045;45.440;9.178;2023-09-18T06:10:02;21.85;;;17.05;;
32399;SDS011;45045;45.440;9.178;2023-09-18T06:12:28;20.75;;;17.55;;
32399;SDS011;45045;45.440;9.178;2023-09-18T06:14:55;23.58;;;17.85;;
32399;SDS011;45045;45.440;9.178;2023-09-18T06:17:21;26.95;;;18.38;;
32399;SDS011;45045;45.440;9.178;2023-09-18T06:19:46;24.17;;;19.02;;
32399;SDS011;45045;45.440;9.178;2023-09-18T06:22:12;24.63;;;21.27;;
32399;SDS011;45045;45.440;9.178;2023-09-18T06:24:39;28.55;;;22.88;;
32399;SDS011;45045;45.440;9.178;2023-09-18T06:27:04;26.85;;;23.40;;
32399;SDS011;45045;45.440;9.178;2023-09-18T06:29:33;34.25;;;22.95;;
32399;SDS011;45045;45.440;9.178;2023-09-18T06:32:00;28.23;;;24.73;;
32399;SDS011;45045;45.440;9.178;2023-09-18T06:34:26;28.52;;;25.45;;
32399;SDS011;45045;45.440;9.178;2023-09-18T06:36:53;30.27;;;24.50;;
32399;SDS011;45045;45.440;9.178;2023-09-18T06:39:19;29.63;;;24.98;;
32399;SDS011;45045;45.440;9.178;2023-09-18T06:41:47;29.67;;;25.63;;
32399;SDS011;45045;45.440;9.178;2023-09-18T06:44:13;30.73;;;25.85;;
32399;SDS011;45045;45.440;9.178;2023-09-18T06:46:38;33.28;;;27.83;;
32399;SDS011;45045;45.440;9.178;2023-09-18T06:49:04;32.08;;;28.60;;
32399;SDS011;45045;45.440;9.178;2023-09-18T06:51:30;36.90;;;30.55;;
32399;SDS011;45045;45.440;9.178;2023-09-18T06:53:55;34.95;;;30.80;;
32399;SDS011;45045;45.440;9.178;2023-09-18T06:56:27;37.28;;;31.35;;
32399;SDS011;45045;45.440;9.178;2023-09-18T06:58:53;35.78;;;31.95;;
32399;SDS011;45045;45.440;9.178;2023-09-18T07:01:20;38.35;;;32.55;;
32399;SDS011;45045;45.440;9.178;2023-09-18T07:03:46;38.60;;;32.75;;
32399;SDS011;45045;45.440;9.178;2023-09-18T07:06:15;40.53;;;36.10;;
32399;SDS011;45045;45.440;9.178;2023-09-18T07:08:43;40.67;;;34.92;;
32399;SDS011;45045;45.440;9.178;2023-09-18T07:11:09;40.50;;;35.38;;
32399;SDS011;45045;45.440;9.178;2023-09-18T07:13:36;40.90;;;35.60;;
32399;SDS011;45045;45.440;9.178;2023-09-18T07:16:02;45.78;;;37.53;;
32399;SDS011;45045;45.440;9.178;2023-09-18T07:18:28;42.13;;;37.47;;
32399;SDS011;45045;45.440;9.178;2023-09-18T07:20:54;47.00;;;39.97;;
32399;SDS011;45045;45.440;9.178;2023-09-18T07:23:20;45.08;;;40.20;;
32399;SDS011;45045;45.440;9.178;2023-09-18T07:25:47;45.85;;;40.85;;
32399;SDS011;45045;45.440;9.178;2023-09-18T07:28:13;55.83;;;41.75;;
32399;SDS011;45045;45.440;9.178;2023-09-18T07:30:42;47.92;;;41.45;;
32399;SDS011;45045;45.440;9.178;2023-09-18T07:33:09;48.28;;;42.95;;
32399;SDS011;45045;45.440;9.178;2023-09-18T07:35:35;54.47;;;44.90;;
32399;SDS011;45045;45.440;9.178;2023-09-18T07:38:00;50.30;;;43.55;;
32399;SDS011;45045;45.440;9.178;2023-09-18T07:40:26;50.53;;;43.30;;
32399;SDS011;45045;45.440;9.178;2023-09-18T07:42:52;51.13;;;42.88;;
32399;SDS011;45045;45.440;9.178;2023-09-18T07:45:18;54.10;;;44.15;;
32399;SDS011;45045;45.440;9.178;2023-09-18T07:47:44;52.95;;;44.25;;
32399;SDS011;45045;45.440;9.178;2023-09-18T07:50:10;51.80;;;44.30;;
32399;SDS011;45045;45.440;9.178;2023-09-18T07:52:35;52.17;;;42.38;;
32399;SDS011;45045;45.440;9.178;2023-09-18T07:55:01;51.88;;;41.40;;
32399;SDS011;45045;45.440;9.178;2023-09-18T07:57:27;50.40;;;42.45;;
32399;SDS011;45045;45.440;9.178;2023-09-18T07:59:57;49.35;;;42.42;;
32399;SDS011;45045;45.440;9.178;2023-09-18T08:02:23;51.80;;;43.17;;
32399;SDS011;45045;45.440;9.178;2023-09-18T08:04:49;48.65;;;43.42;;
32399;SDS011;45045;45.440;9.178;2023-09-18T08:07:15;49.47;;;42.58;;
32399;SDS011;45045;45.440;9.178;2023-09-18T08:09:41;52.72;;;40.80;;
32399;SDS011;45045;45.440;9.178;2023-09-18T08:12:07;50.97;;;40.80;;
32399;SDS011;45045;45.440;9.178;2023-09-18T08:14:34;49.22;;;42.55;;
32399;SDS011;45045;45.440;9.178;2023-09-18T08:17:02;50.25;;;41.55;;
32399;SDS011;45045;45.440;9.178;2023-09-18T08:19:29;47.83;;;41.17;;
32399;SDS011;45045;45.440;9.178;2023-09-18T08:21:57;55.67;;;41.50;;
32399;SDS011;45045;45.440;9.178;2023-09-18T08:24:24;47.40;;;40.08;;
32399;SDS011;45045;45.440;9.178;2023-09-18T08:26:50;50.60;;;39.72;;
32399;SDS011;45045;45.440;9.178;2023-09-18T08:29:16;49.55;;;39.17;;
32399;SDS011;45045;45.440;9.178;2023-09-18T08:31:43;47.25;;;37.50;;
32399;SDS011;45045;45.440;9.178;2023-09-18T08:34:09;45.00;;;37.22;;
32399;SDS011;45045;45.440;9.178;2023-09-18T08:36:34;43.20;;;35.35;;
32399;SDS011;45045;45.440;9.178;2023-09-18T08:39:00;42.38;;;36.22;;
32399;SDS011;45045;45.440;9.178;2023-09-18T08:41:28;47.05;;;37.25;;
32399;SDS011;45045;45.440;9.178;2023-09-18T08:43:56;47.20;;;35.63;;
32399;SDS011;45045;45.440;9.178;2023-09-18T08:46:25;46.38;;;35.95;;
32399;SDS011;45045;45.440;9.178;2023-09-18T08:48:54;45.85;;;36.55;;
32399;SDS011;45045;45.440;9.178;2023-09-18T08:51:20;47.17;;;34.85;;
32399;SDS011;45045;45.440;9.178;2023-09-18T08:53:47;41.83;;;33.72;;
32399;SDS011;45045;45.440;9.178;2023-09-18T08:56:13;40.95;;;35.05;;
32399;SDS011;45045;45.440;9.178;2023-09-18T08:58:42;40.60;;;33.85;;
32399;SDS011;45045;45.440;9.178;2023-09-18T09:01:09;39.97;;;34.95;;
32399;SDS011;45045;45.440;9.178;2023-09-18T09:03:36;39.22;;;32.97;;
32399;SDS011;45045;45.440;9.178;2023-09-18T09:06:03;39.80;;;32.50;;
32399;SDS011;45045;45.440;9.178;2023-09-18T09:08:29;39.67;;;32.55;;
32399;SDS011;45045;45.440;9.178;2023-09-18T09:10:55;38.35;;;30.83;;
32399;SDS011;45045;45.440;9.178;2023-09-18T09:13:23;37.40;;;29.80;;
32399;SDS011;45045;45.440;9.178;2023-09-18T09:15:51;37.70;;;30.58;;
32399;SDS011;45045;45.440;9.178;2023-09-18T09:18:20;36.70;;;29.77;;
32399;SDS011;45045;45.440;9.178;2023-09-18T09:23:25;33.90;;;29.48;;
32399;SDS011;45045;45.440;9.178;2023-09-18T09:25:52;35.65;;;30.75;;
32399;SDS011;45045;45.440;9.178;2023-09-18T09:28:28;37.35;;;29.85;;
32399;SDS011;45045;45.440;9.178;2023-09-18T09:31:02;35.28;;;29.02;;
32399;SDS011;45045;45.440;9.178;2023-09-18T09:33:28;35.67;;;30.00;;
32399;SDS011;45045;45.440;9.178;2023-09-18T09:35:54;34.95;;;31.23;;
32399;SDS011;45045;45.440;9.178;2023-09-18T09:38:22;35.63;;;29.27;;
32399;SDS011;45045;45.440;9.178;2023-09-18T09:40:57;36.40;;;29.15;;
32399;SDS011;45045;45.440;9.178;2023-09-18T09:43:24;35.08;;;29.83;;
32399;SDS011;45045;45.440;9.178;2023-09-18T09:45:56;33.55;;;28.80;;
32399;SDS011;45045;45.440;9.178;2023-09-18T09:48:25;31.83;;;28.42;;
32399;SDS011;45045;45.440;9.178;2023-09-18T09:50:51;37.17;;;29.88;;
32399;SDS011;45045;45.440;9.178;2023-09-18T09:56:08;33.45;;;27.27;;
32399;SDS011;45045;45.440;9.178;2023-09-18T09:58:33;33.95;;;28.67;;
32399;SDS011;45045;45.440;9.178;2023-09-18T10:01:02;39.63;;;29.33;;
32399;SDS011;45045;45.440;9.178;2023-09-18T10:03:30;32.08;;;28.60;;
32399;SDS011;45045;45.440;9.178;2023-09-18T10:05:58;36.80;;;29.65;;
32399;SDS011;45045;45.440;9.178;2023-09-18T10:08:25;33.10;;;28.35;;
32399;SDS011;45045;45.440;9.178;2023-09-18T10:10:53;35.60;;;28.92;;
32399;SDS011;45045;45.440;9.178;2023-09-18T10:13:32;34.30;;;28.45;;
32399;SDS011;45045;45.440;9.178;2023-09-18T10:16:01;35.45;;;28.60;;
32399;SDS011;45045;45.440;9.178;2023-09-18T10:21:36;32.50;;;27.15;;
32399;SDS011;45045;45.440;9.178;2023-09-18T10:24:22;35.42;;;28.30;;
32399;SDS011;45045;45.440;9.178;2023-09-18T10:29:19;33.38;;;27.27;;
32399;SDS011;45045;45.440;9.178;2023-09-18T10:31:45;31.15;;;27.85;;
32399;SDS011;45045;45.440;9.178;2023-09-18T10:34:12;31.33;;;26.42;;
32399;SDS011;45045;45.440;9.178;2023-09-18T10:36:39;33.83;;;26.10;;
32399;SDS011;45045;45.440;9.178;2023-09-18T10:39:06;33.15;;;27.58;;
32399;SDS011;45045;45.440;9.178;2023-09-18T10:41:35;34.63;;;26.15;;
32399;SDS011;45045;45.440;9.178;2023-09-18T10:44:02;32.10;;;26.40;;
32399;SDS011;45045;45.440;9.178;2023-09-18T10:46:29;29.42;;;24.25;;
32399;SDS011;45045;45.440;9.178;2023-09-18T10:48:55;30.83;;;25.58;;
32399;SDS011;45045;45.440;9.178;2023-09-18T10:51:22;31.67;;;24.90;;
32399;SDS011;45045;45.440;9.178;2023-09-18T10:53:49;26.98;;;22.80;;
32399;SDS011;45045;45.440;9.178;2023-09-18T10:56:15;29.58;;;23.38;;
32399;SDS011;45045;45.440;9.178;2023-09-18T10:58:41;27.85;;;23.83;;
32399;SDS011;45045;45.440;9.178;2023-09-18T11:01:09;33.40;;;21.85;;
32399;SDS011;45045;45.440;9.178;2023-09-18T11:03:37;26.90;;;22.95;;
32399;SDS011;45045;45.440;9.178;2023-09-18T11:06:03;28.30;;;22.13;;
32399;SDS011;45045;45.440;9.178;2023-09-18T11:08:34;28.92;;;21.50;;
32399;SDS011;45045;45.440;9.178;2023-09-18T11:11:08;30.42;;;21.92;;
32399;SDS011;45045;45.440;9.178;2023-09-18T11:13:39;28.67;;;21.05;;
32399;SDS011;45045;45.440;9.178;2023-09-18T11:16:51;27.95;;;19.50;;
32399;SDS011;45045;45.440;9.178;2023-09-18T11:18:53;25.48;;;19.90;;
32399;SDS011;45045;45.440;9.178;2023-09-18T11:21:23;23.75;;;19.10;;
32399;SDS011;45045;45.440;9.178;2023-09-18T11:24:00;23.13;;;18.95;;
32399;SDS011;45045;45.440;9.178;2023-09-18T11:26:32;24.67;;;19.15;;
32399;SDS011;45045;45.440;9.178;2023-09-18T11:29:07;25.88;;;18.25;;
32399;SDS011;45045;45.440;9.178;2023-09-18T11:34:15;21.85;;;17.17;;
32399;SDS011;45045;45.440;9.178;2023-09-18T11:36:45;21.40;;;16.80;;
32399;SDS011;45045;45.440;9.178;2023-09-18T11:39:11;23.77;;;15.98;;
32399;SDS011;45045;45.440;9.178;2023-09-18T11:41:37;22.20;;;15.27;;
32399;SDS011;45045;45.440;9.178;2023-09-18T11:46:38;19.88;;;15.60;;
32399;SDS011;45045;45.440;9.178;2023-09-18T11:49:07;20.85;;;14.50;;
32399;SDS011;45045;45.440;9.178;2023-09-18T11:51:35;24.23;;;15.38;;
32399;SDS011;45045;45.440;9.178;2023-09-18T11:54:01;25.25;;;15.20;;
32399;SDS011;45045;45.440;9.178;2023-09-18T11:56:29;24.15;;;15.18;;
32399;SDS011;45045;45.440;9.178;2023-09-18T11:59:00;24.70;;;15.88;;
32399;SDS011;45045;45.440;9.178;2023-09-18T12:01:30;21.88;;;16.05;;
32399;SDS011;45045;45.440;9.178;2023-09-18T12:04:02;21.17;;;16.30;;
32399;SDS011;45045;45.440;9.178;2023-09-18T12:06:40;26.35;;;16.05;;
32399;SDS011;45045;45.440;9.178;2023-09-18T12:09:07;25.17;;;16.55;;
32399;SDS011;45045;45.440;9.178;2023-09-18T12:11:34;22.90;;;16.25;;
32399;SDS011;45045;45.440;9.178;2023-09-18T12:14:00;29.17;;;15.45;;
32399;SDS011;45045;45.440;9.178;2023-09-18T12:16:30;24.75;;;15.40;;
32399;SDS011;45045;45.440;9.178;2023-09-18T12:18:56;23.95;;;15.40;;
32399;SDS011;45045;45.440;9.178;2023-09-18T12:21:22;25.65;;;14.88;;
32399;SDS011;45045;45.440;9.178;2023-09-18T12:23:48;25.25;;;15.88;;
32399;SDS011;45045;45.440;9.178;2023-09-18T12:26:15;20.67;;;14.73;;
32399;SDS011;45045;45.440;9.178;2023-09-18T12:28:44;19.30;;;13.98;;
32399;SDS011;45045;45.440;9.178;2023-09-18T12:31:13;22.50;;;15.25;;
32399;SDS011;45045;45.440;9.178;2023-09-18T12:33:41;23.30;;;14.07;;
32399;SDS011;45045;45.440;9.178;2023-09-18T12:36:12;26.90;;;14.15;;
32399;SDS011;45045;45.440;9.178;2023-09-18T12:38:44;25.13;;;14.55;;
32399;SDS011;45045;45.440;9.178;2023-09-18T12:41:20;22.70;;;14.20;;
32399;SDS011;45045;45.440;9.178;2023-09-18T12:43:46;27.65;;;14.77;;
32399;SDS011;45045;45.440;9.178;2023-09-18T12:46:11;22.85;;;15.25;;
32399;SDS011;45045;45.440;9.178;2023-09-18T12:48:38;27.83;;;16.38;;
32399;SDS011;45045;45.440;9.178;2023-09-18T12:51:11;27.38;;;14.93;;
32399;SDS011;45045;45.440;9.178;2023-09-18T12:53:37;24.30;;;15.48;;
32399;SDS011;45045;45.440;9.178;2023-09-18T12:56:10;25.80;;;16.00;;
32399;SDS011;45045;45.440;9.178;2023-09-18T12:58:37;24.75;;;16.70;;
32399;SDS011;45045;45.440;9.178;2023-09-18T13:01:04;33.08;;;17.13;;
32399;SDS011;45045;45.440;9.178;2023-09-18T13:03:35;27.92;;;17.73;;
32399;SDS011;45045;45.440;9.178;2023-09-18T13:06:09;27.70;;;16.70;;
32399;SDS011;45045;45.440;9.178;2023-09-18T13:08:42;25.20;;;18.42;;
32399;SDS011;45045;45.440;9.178;2023-09-18T13:11:08;22.23;;;16.50;;
32399;SDS011;45045;45.440;9.178;2023-09-18T13:13:36;30.88;;;17.70;;
32399;SDS011;45045;45.440;9.178;2023-09-18T13:16:04;22.55;;;18.13;;
32399;SDS011;45045;45.440;9.178;2023-09-18T13:18:34;25.98;;;18.63;;
32399;SDS011;45045;45.440;9.178;2023-09-18T13:21:00;28.60;;;19.00;;
32399;SDS011;45045;45.440;9.178;2023-09-18T13:23:34;31.77;;;20.27;;
32399;SDS011;45045;45.440;9.178;2023-09-18T13:26:04;32.40;;;22.73;;
32399;SDS011;45045;45.440;9.178;2023-09-18T13:28:31;30.17;;;21.25;;
32399;SDS011;45045;45.440;9.178;2023-09-18T13:30:59;31.70;;;21.13;;
32399;SDS011;45045;45.440;9.178;2023-09-18T13:33:25;30.30;;;21.52;;
32399;SDS011;45045;45.440;9.178;2023-09-18T13:35:51;35.55;;;22.38;;
32399;SDS011;45045;45.440;9.178;2023-09-18T13:38:18;36.65;;;22.70;;
32399;SDS011;45045;45.440;9.178;2023-09-18T13:40:45;30.10;;;22.40;;
32399;SDS011;45045;45.440;9.178;2023-09-18T13:43:12;32.13;;;22.98;;
32399;SDS011;45045;45.440;9.178;2023-09-18T13:45:44;33.22;;;21.63;;
32399;SDS011;45045;45.440;9.178;2023-09-18T13:48:10;32.53;;;23.67;;
32399;SDS011;45045;45.440;9.178;2023-09-18T13:50:36;34.63;;;22.02;;
32399;SDS011;45045;45.440;9.178;2023-09-18T13:53:03;30.80;;;22.25;;
32399;SDS011;45045;45.440;9.178;2023-09-18T13:55:31;32.75;;;22.55;;
32399;SDS011;45045;45.440;9.178;2023-09-18T13:57:57;33.72;;;22.70;;
32399;SDS011;45045;45.440;9.178;2023-09-18T14:00:23;28.20;;;23.73;;
32399;SDS011;45045;45.440;9.178;2023-09-18T14:02:50;31.65;;;22.65;;
32399;SDS011;45045;45.440;9.178;2023-09-18T14:05:16;33.72;;;24.27;;
32399;SDS011;45045;45.440;9.178;2023-09-18T14:07:41;36.00;;;25.10;;
32399;SDS011;45045;45.440;9.178;2023-09-18T14:10:07;31.80;;;25.95;;
32399;SDS011;45045;45.440;9.178;2023-09-18T14:12:35;35.88;;;25.33;;
32399;SDS011;45045;45.440;9.178;2023-09-18T14:15:07;35.47;;;25.60;;
32399;SDS011;45045;45.440;9.178;2023-09-18T14:17:34;32.88;;;26.67;;
32399;SDS011;45045;45.440;9.178;2023-09-18T14:20:01;33.70;;;25.73;;
32399;SDS011;45045;45.440;9.178;2023-09-18T14:22:31;39.37;;;26.97;;
32399;SDS011;45045;45.440;9.178;2023-09-18T14:24:57;40.72;;;25.73;;
32399;SDS011;45045;45.440;9.178;2023-09-18T14:27:23;38.35;;;26.35;;
32399;SDS011;45045;45.440;9.178;2023-09-18T14:29:49;38.13;;;27.27;;
32399;SDS011;45045;45.440;9.178;2023-09-18T14:32:14;38.45;;;24.55;;
32399;SDS011;45045;45.440;9.178;2023-09-18T14:34:40;35.55;;;26.55;;
32399;SDS011;45045;45.440;9.178;2023-09-18T14:37:07;35.88;;;25.52;;
32399;SDS011;45045;45.440;9.178;2023-09-18T14:39:33;38.78;;;24.98;;
32399;SDS011;45045;45.440;9.178;2023-09-18T14:41:58;33.15;;;23.75;;
32399;SDS011;45045;45.440;9.178;2023-09-18T14:44:25;38.25;;;26.50;;